createdAt,value
2019-04-16T00:00:23.605Z,19.52
2019-04-16T00:02:54.113Z,18.45
2019-04-16T00:05:28.474Z,20.27
2019-04-16T00:08:27.153Z,23.02
2019-04-16T00:10:56.813Z,17.00
2019-04-16T00:13:30.110Z,22.87
2019-04-16T00:15:58.389Z,21.68
2019-04-16T00:18:25.860Z,17.67
2019-04-16T00:21:09.901Z,19.62
2019-04-16T00:23:54.870Z,18.40
2019-04-16T00:26:26.525Z,18.50
2019-04-16T00:28:51.706Z,19.23
2019-04-16T00:31:19.116Z,21.90
2019-04-16T00:33:46.584Z,20.85
2019-04-16T00:36:15.362Z,22.75
2019-04-16T00:38:43.236Z,19.17
2019-04-16T00:41:10.739Z,23.15
2019-04-16T00:43:38.395Z,18.20
2019-04-16T00:46:08.216Z,23.10
2019-04-16T00:48:35.121Z,23.27
2019-04-16T00:51:02.530Z,19.75
2019-04-16T00:53:29.965Z,17.70
2019-04-16T00:55:57.343Z,18.82
2019-04-16T00:58:24.698Z,22.42
2019-04-16T01:00:52.053Z,20.55
2019-04-16T01:03:19.400Z,23.05
2019-04-16T01:05:46.848Z,22.05
2019-04-16T01:08:14.203Z,21.25
2019-04-16T01:10:41.589Z,19.60
2019-04-16T01:13:09.136Z,21.57
2019-04-16T01:15:36.631Z,22.37
2019-04-16T01:18:04.574Z,17.65
2019-04-16T01:20:33.256Z,24.60
2019-04-16T01:23:00.868Z,18.60
2019-04-16T01:25:28.298Z,18.77
2019-04-16T01:28:00.768Z,17.77
2019-04-16T01:30:38.726Z,22.82
2019-04-16T01:33:31.790Z,19.50
2019-04-16T01:36:06.446Z,21.52
2019-04-16T01:38:42.607Z,20.27
2019-04-16T01:41:12.124Z,18.27
2019-04-16T01:43:39.558Z,18.87
2019-04-16T01:46:06.985Z,19.75
2019-04-16T01:48:38.667Z,17.25
2019-04-16T01:51:03.517Z,20.60
2019-04-16T01:53:30.930Z,18.92
2019-04-16T01:55:58.574Z,21.60
2019-04-16T01:58:26.043Z,23.07
2019-04-16T02:00:53.510Z,18.55
2019-04-16T02:03:20.792Z,18.67
2019-04-16T02:05:48.141Z,19.52
2019-04-16T02:08:15.538Z,19.90
2019-04-16T02:10:42.864Z,18.48
2019-04-16T02:13:14.548Z,20.52
2019-04-16T02:15:39.526Z,17.48
2019-04-16T02:18:07.230Z,19.77
2019-04-16T02:20:38.434Z,19.50
2019-04-16T02:23:03.786Z,18.82
2019-04-16T02:25:31.066Z,22.70
2019-04-16T02:27:58.406Z,22.93
2019-04-16T02:30:25.821Z,20.37
2019-04-16T02:32:53.271Z,20.72
2019-04-16T02:35:20.721Z,21.42
2019-04-16T02:37:48.035Z,16.75
2019-04-16T02:40:18.292Z,20.15
2019-04-16T02:42:44.538Z,21.07
2019-04-16T02:45:12.375Z,24.00
2019-04-16T02:47:42.069Z,19.57
2019-04-16T02:50:12.951Z,21.95
2019-04-16T02:53:11.828Z,20.37
2019-04-16T02:55:53.135Z,17.95
2019-04-16T02:58:33.888Z,18.98
2019-04-16T03:01:20.911Z,22.05
2019-04-16T03:03:56.232Z,21.12
2019-04-16T03:06:22.706Z,18.65
2019-04-16T03:08:50.762Z,22.80
2019-04-16T03:11:18.179Z,20.43
2019-04-16T03:13:46.025Z,23.40
2019-04-16T03:16:38.842Z,20.57
2019-04-16T03:19:10.212Z,19.30
2019-04-16T03:21:37.694Z,20.02
2019-04-16T03:24:07.972Z,19.62
2019-04-16T03:26:34.366Z,18.12
2019-04-16T03:29:01.678Z,22.02
2019-04-16T03:31:29.000Z,21.52
2019-04-16T03:33:56.415Z,20.08
2019-04-16T03:36:26.540Z,20.62
2019-04-16T03:38:53.038Z,16.70
2019-04-16T03:41:20.376Z,19.80
2019-04-16T03:43:47.622Z,21.20
2019-04-16T03:46:14.954Z,16.57
2019-04-16T03:48:42.265Z,18.23
2019-04-16T03:51:09.621Z,19.82
2019-04-16T03:53:36.938Z,20.40
2019-04-16T03:56:04.750Z,17.62
2019-04-16T03:58:32.222Z,18.67
2019-04-16T04:00:59.615Z,18.95
2019-04-16T04:03:27.034Z,22.27
2019-04-16T04:05:55.183Z,22.48
2019-04-16T04:08:22.767Z,22.07
2019-04-16T04:10:50.370Z,21.80
2019-04-16T04:13:18.899Z,21.42
2019-04-16T04:15:47.056Z,20.00
2019-04-16T04:18:14.746Z,18.27
2019-04-16T04:20:42.026Z,23.27
2019-04-16T04:23:09.370Z,22.80
2019-04-16T04:25:37.080Z,19.70
2019-04-16T04:28:04.502Z,21.55
2019-04-16T04:30:31.933Z,19.12
2019-04-16T04:32:59.331Z,18.23
2019-04-16T04:35:26.735Z,19.95
2019-04-16T04:37:54.407Z,20.05
2019-04-16T04:40:21.761Z,20.40
2019-04-16T04:42:49.041Z,19.42
2019-04-16T04:45:16.508Z,19.23
2019-04-16T04:47:43.851Z,21.33
2019-04-16T04:50:11.296Z,23.20
2019-04-16T04:52:38.578Z,19.90
2019-04-16T04:55:06.001Z,20.02
2019-04-16T04:57:33.364Z,18.73
2019-04-16T05:00:00.664Z,24.57
2019-04-16T05:02:28.377Z,18.12
2019-04-16T05:05:10.518Z,23.47
2019-04-16T05:07:37.845Z,22.70
2019-04-16T05:10:07.445Z,21.12
2019-04-16T05:12:34.660Z,20.35
2019-04-16T05:15:03.850Z,18.75
2019-04-16T05:17:31.156Z,18.32
2019-04-16T05:19:58.472Z,19.23
2019-04-16T05:22:25.795Z,18.82
2019-04-16T05:24:53.149Z,20.77
2019-04-16T05:27:20.469Z,17.90
2019-04-16T05:29:48.847Z,20.57
2019-04-16T05:32:17.094Z,19.65
2019-04-16T05:34:44.480Z,18.87
2019-04-16T05:37:12.738Z,22.58
2019-04-16T05:39:40.078Z,19.30
2019-04-16T05:42:07.391Z,18.80
2019-04-16T05:44:34.696Z,21.30
2019-04-16T05:47:02.073Z,21.20
2019-04-16T05:49:29.457Z,18.23
2019-04-16T05:51:56.804Z,19.85
2019-04-16T05:54:34.338Z,18.92
2019-04-16T05:57:01.901Z,21.68
2019-04-16T05:59:33.585Z,21.50
2019-04-16T06:02:04.352Z,22.32
2019-04-16T06:04:31.932Z,19.42
2019-04-16T06:07:02.902Z,20.17
2019-04-16T06:09:29.351Z,20.70
2019-04-16T06:11:57.800Z,19.32
2019-04-16T06:14:39.077Z,23.15
2019-04-16T06:17:38.087Z,25.12
2019-04-16T06:20:23.548Z,18.37
2019-04-16T06:23:16.476Z,19.65
2019-04-16T06:25:49.779Z,22.00
2019-04-16T06:28:36.694Z,19.65
2019-04-16T06:31:22.210Z,20.65
2019-04-16T06:34:07.388Z,21.93
2019-04-16T06:37:00.250Z,19.07
2019-04-16T06:40:00.693Z,19.90
2019-04-16T06:42:29.393Z,19.95
2019-04-16T06:44:58.466Z,20.50
2019-04-16T06:47:54.194Z,19.27
2019-04-16T06:50:40.664Z,20.43
2019-04-16T06:53:30.735Z,22.27
2019-04-16T06:56:20.231Z,22.30
2019-04-16T06:58:57.213Z,18.65
2019-04-16T07:01:54.932Z,18.30
2019-04-16T07:04:33.748Z,19.00
2019-04-16T07:07:21.816Z,21.68
2019-04-16T07:10:02.322Z,24.87
2019-04-16T07:12:37.997Z,21.87
2019-04-16T07:15:02.073Z,18.82
2019-04-16T07:17:33.513Z,20.48
2019-04-16T07:19:58.737Z,18.73
2019-04-16T07:22:26.273Z,17.67
2019-04-16T07:24:57.044Z,19.35
2019-04-16T07:27:26.109Z,16.95
2019-04-16T07:30:19.536Z,18.95
2019-04-16T07:33:03.310Z,22.35
2019-04-16T07:35:48.896Z,18.50
2019-04-16T07:38:29.703Z,23.40
2019-04-16T07:43:47.020Z,20.92
2019-04-16T07:44:22.201Z,20.80
2019-04-16T07:47:07.675Z,19.50
2019-04-16T07:50:01.483Z,21.25
2019-04-16T07:52:47.478Z,19.40
2019-04-16T07:55:37.326Z,20.57
2019-04-16T07:58:05.064Z,20.80
2019-04-16T08:00:32.851Z,20.92
2019-04-16T08:03:00.222Z,21.05
2019-04-16T08:05:28.129Z,20.97
2019-04-16T08:07:55.868Z,25.00
2019-04-16T08:10:23.375Z,19.55
2019-04-16T08:12:57.237Z,21.60
2019-04-16T08:15:23.777Z,18.67
2019-04-16T08:17:51.217Z,20.52
2019-04-16T08:20:20.941Z,21.00
2019-04-16T08:22:48.753Z,24.12
2019-04-16T08:25:21.012Z,19.87
2019-04-16T08:27:50.818Z,22.55
2019-04-16T08:30:17.714Z,24.10
2019-04-16T08:32:45.820Z,22.45
2019-04-16T08:35:14.448Z,19.73
2019-04-16T08:37:48.838Z,23.18
2019-04-16T08:40:12.176Z,23.35
2019-04-16T08:42:44.598Z,23.87
2019-04-16T08:45:09.987Z,24.77
2019-04-16T08:47:37.415Z,21.97
2019-04-16T08:50:05.265Z,24.63
2019-04-16T08:52:32.705Z,25.62
2019-04-16T08:55:00.020Z,24.02
2019-04-16T08:57:31.594Z,21.52
2019-04-16T08:59:56.693Z,21.37
2019-04-16T09:02:27.003Z,21.90
2019-04-16T09:04:53.816Z,21.80
2019-04-16T09:07:39.545Z,21.33
2019-04-16T09:10:17.478Z,24.32
2019-04-16T09:12:44.911Z,23.00
2019-04-16T09:15:09.566Z,21.23
2019-04-16T09:17:39.652Z,23.42
2019-04-16T09:20:18.623Z,22.13
2019-04-16T09:22:49.136Z,26.07
2019-04-16T09:25:37.491Z,25.87
2019-04-16T09:28:25.827Z,21.45
2019-04-16T09:31:05.610Z,22.05
2019-04-16T09:33:48.414Z,27.13
2019-04-16T09:36:24.829Z,24.15
2019-04-16T09:39:11.839Z,24.70
2019-04-16T09:41:41.999Z,21.77
2019-04-16T09:44:09.522Z,23.77
2019-04-16T09:46:52.508Z,22.17
2019-04-16T09:49:06.307Z,22.07
2019-04-16T09:51:33.655Z,26.03
2019-04-16T09:54:01.364Z,24.60
2019-04-16T09:56:29.985Z,21.73
2019-04-16T09:59:02.257Z,26.50
2019-04-16T10:01:38.627Z,23.10
2019-04-16T10:04:09.315Z,23.23
2019-04-16T10:06:36.861Z,24.33
2019-04-16T10:09:06.124Z,21.27
2019-04-16T10:11:36.487Z,21.43
2019-04-16T10:14:04.480Z,20.63
2019-04-16T10:16:31.807Z,20.53
2019-04-16T10:18:59.365Z,21.13
2019-04-16T10:21:29.117Z,22.23
2019-04-16T10:24:18.567Z,22.87
2019-04-16T10:26:49.304Z,20.80
2019-04-16T10:29:17.969Z,22.63
2019-04-16T10:31:45.800Z,22.90
2019-04-16T10:34:13.437Z,20.97
2019-04-16T10:36:41.495Z,22.10
2019-04-16T10:39:28.410Z,20.70
2019-04-16T10:42:21.315Z,20.30
2019-04-16T10:45:11.556Z,21.87
2019-04-16T10:48:00.637Z,20.20
2019-04-16T10:50:53.414Z,20.60
2019-04-16T10:53:40.971Z,21.70
2019-04-16T10:56:46.278Z,19.53
2019-04-16T10:59:32.053Z,23.97
2019-04-16T11:02:17.745Z,21.97
2019-04-16T11:05:04.675Z,22.67
2019-04-16T11:07:32.540Z,21.33
2019-04-16T11:10:00.393Z,20.53
2019-04-16T11:12:27.900Z,20.20
2019-04-16T11:14:55.425Z,20.23
2019-04-16T11:17:24.663Z,20.50
2019-04-16T11:19:54.227Z,22.50
2019-04-16T11:22:22.541Z,19.53
2019-04-16T11:24:50.181Z,20.30
2019-04-16T11:27:20.141Z,18.37
2019-04-16T11:29:47.518Z,19.23
2019-04-16T11:32:16.613Z,18.63
2019-04-16T11:34:44.165Z,19.97
2019-04-16T11:37:11.620Z,19.77
2019-04-16T11:39:39.158Z,18.10
2019-04-16T11:42:06.662Z,19.07
2019-04-16T11:44:34.141Z,18.27
2019-04-16T11:47:01.951Z,17.90
2019-04-16T11:49:29.449Z,18.70
2019-04-16T11:51:57.079Z,16.47
2019-04-16T11:54:24.646Z,16.07
2019-04-16T11:56:52.063Z,16.20
2019-04-16T11:59:19.607Z,16.30
2019-04-16T12:02:09.356Z,17.50
2019-04-16T12:05:08.339Z,17.07
2019-04-16T12:08:13.541Z,16.93
2019-04-16T12:11:18.878Z,16.23
2019-04-16T12:13:55.704Z,16.70
2019-04-16T12:16:35.684Z,15.67
2019-04-16T12:19:25.870Z,14.67
2019-04-16T12:22:27.902Z,15.97
2019-04-16T12:25:14.480Z,14.90
2019-04-16T12:28:01.899Z,16.07
2019-04-16T12:30:52.913Z,15.80
2019-04-16T12:33:42.401Z,15.27
2019-04-16T12:36:27.839Z,16.30
2019-04-16T12:39:20.992Z,14.50
2019-04-16T12:41:55.835Z,15.80
2019-04-16T12:44:50.735Z,14.10
2019-04-16T12:47:32.208Z,14.30
2019-04-16T12:50:08.042Z,14.43
2019-04-16T12:53:04.105Z,13.37
2019-04-16T12:55:49.679Z,15.63
2019-04-16T12:58:39.046Z,14.70
2019-04-16T13:01:19.829Z,14.53
2019-04-16T13:03:52.697Z,13.30
2019-04-16T13:06:31.516Z,14.03
2019-04-16T13:09:21.394Z,13.87
2019-04-16T13:12:01.974Z,12.33
2019-04-16T13:15:01.234Z,12.73
2019-04-16T13:17:51.794Z,11.63
2019-04-16T13:20:48.348Z,12.80
2019-04-16T13:23:35.274Z,12.77
2019-04-16T13:26:13.408Z,12.93
2019-04-16T13:28:41.423Z,11.23
2019-04-16T13:31:08.964Z,10.50
2019-04-16T13:33:36.674Z,11.77
2019-04-16T13:36:04.624Z,12.17
2019-04-16T13:38:34.435Z,9.97
2019-04-16T13:41:02.675Z,11.37
2019-04-16T13:43:36.817Z,11.13
2019-04-16T13:46:05.007Z,10.50
2019-04-16T13:48:42.540Z,11.53
2019-04-16T13:51:18.278Z,12.27
2019-04-16T13:54:04.110Z,10.07
2019-04-16T13:56:38.169Z,10.20
2019-04-16T13:59:37.218Z,9.73
2019-04-16T14:02:42.175Z,9.67
2019-04-16T14:05:10.995Z,9.20
2019-04-16T14:07:39.191Z,8.47
2019-04-16T14:10:06.942Z,9.83
2019-04-16T14:12:42.363Z,8.80
2019-04-16T14:15:06.847Z,9.27
2019-04-16T14:17:36.469Z,10.47
2019-04-16T14:20:05.342Z,10.70
2019-04-16T14:22:32.804Z,11.83
2019-04-16T14:25:00.134Z,11.00
2019-04-16T14:27:27.502Z,10.90
2019-04-16T14:29:58.930Z,15.47
2019-04-16T14:32:24.905Z,14.03
2019-04-16T14:34:54.941Z,13.50
2019-04-16T14:37:22.820Z,14.50
2019-04-16T14:39:55.625Z,12.80
2019-04-16T14:42:23.171Z,10.70
2019-04-16T14:44:54.589Z,10.63
2019-04-16T14:47:22.043Z,12.60
2019-04-16T14:49:50.885Z,12.10
2019-04-16T14:52:18.522Z,12.03
2019-04-16T14:54:51.651Z,10.93
2019-04-16T14:57:19.097Z,9.63
2019-04-16T15:00:06.020Z,9.80
2019-04-16T15:02:44.044Z,8.63
2019-04-16T15:05:29.394Z,8.30
2019-04-16T15:08:01.906Z,9.77
2019-04-16T15:10:48.641Z,9.03
2019-04-16T15:13:44.770Z,8.63
2019-04-16T15:16:30.408Z,9.90
2019-04-16T15:19:29.738Z,9.03
2019-04-16T15:22:15.542Z,7.90
2019-04-16T15:25:02.579Z,8.80
2019-04-16T15:27:44.943Z,10.20
2019-04-16T15:30:38.192Z,6.70
2019-04-16T15:33:35.801Z,7.40
2019-04-16T15:36:12.222Z,6.87
2019-04-16T15:38:51.878Z,7.90
2019-04-16T15:41:53.815Z,6.73
2019-04-16T15:44:32.175Z,6.57
2019-04-16T15:47:17.928Z,7.20
2019-04-16T15:49:55.683Z,8.17
2019-04-16T15:52:38.178Z,6.93
2019-04-16T15:55:24.508Z,6.40
2019-04-16T15:58:13.279Z,8.70
2019-04-16T16:01:07.451Z,7.23
2019-04-16T16:03:57.160Z,7.80
2019-04-16T16:06:26.363Z,7.60
2019-04-16T16:09:16.185Z,9.10
2019-04-16T16:12:10.621Z,10.33
2019-04-16T16:14:39.088Z,10.20
2019-04-16T16:17:07.016Z,10.07
2019-04-16T16:19:34.766Z,10.50
2019-04-16T16:22:02.161Z,12.03
2019-04-16T16:24:29.641Z,11.17
2019-04-16T16:26:57.129Z,12.20
2019-04-16T16:29:24.520Z,12.10
2019-04-16T16:31:52.180Z,11.97
2019-04-16T16:34:20.090Z,11.60
2019-04-16T16:36:47.573Z,14.23
2019-04-16T16:39:15.348Z,17.40
2019-04-16T16:41:46.320Z,10.77
2019-04-16T16:44:14.560Z,10.80
2019-04-16T16:47:01.975Z,9.83
2019-04-16T16:49:30.274Z,9.70
2019-04-16T16:52:16.257Z,11.47
2019-04-16T16:54:44.013Z,11.97
2019-04-16T16:57:13.893Z,9.00
2019-04-16T16:59:55.032Z,10.43
2019-04-16T17:02:39.242Z,11.07
2019-04-16T17:05:09.742Z,11.93
2019-04-16T17:07:37.277Z,11.90
2019-04-16T17:10:05.102Z,10.40
2019-04-16T17:12:32.698Z,11.47
2019-04-16T17:15:00.220Z,10.10
2019-04-16T17:17:28.449Z,11.60
2019-04-16T17:19:56.059Z,9.00
2019-04-16T17:22:23.858Z,8.83
2019-04-16T17:24:51.389Z,8.10
2019-04-16T17:27:19.989Z,8.97
2019-04-16T17:29:49.994Z,9.33
2019-04-16T17:32:16.960Z,10.17
2019-04-16T17:34:44.410Z,11.27
2019-04-16T17:37:11.919Z,12.70
2019-04-16T17:39:43.559Z,9.83
2019-04-16T17:42:11.475Z,9.93
2019-04-16T17:45:13.882Z,10.60
2019-04-16T17:48:09.774Z,12.03
2019-04-16T17:50:55.493Z,12.10
2019-04-16T17:53:41.192Z,9.87
2019-04-16T17:56:27.029Z,10.13
2019-04-16T17:59:14.384Z,17.10
2019-04-16T18:02:20.568Z,11.90
2019-04-16T18:05:13.641Z,8.93
2019-04-16T18:07:59.614Z,10.93
2019-04-16T18:10:50.960Z,10.73
2019-04-16T18:13:37.981Z,10.33
2019-04-16T18:16:31.200Z,9.87
2019-04-16T18:19:04.751Z,11.40
2019-04-16T18:21:41.441Z,12.10
2019-04-16T18:24:36.655Z,9.63
2019-04-16T18:27:30.010Z,11.70
2019-04-16T18:30:17.646Z,10.30
2019-04-16T18:33:07.234Z,10.60
2019-04-16T18:35:38.338Z,12.10
2019-04-16T18:38:24.305Z,10.53
2019-04-16T18:41:15.605Z,9.67
2019-04-16T18:44:12.128Z,12.40
2019-04-16T18:47:10.822Z,14.93
2019-04-16T18:49:38.348Z,11.60
2019-04-16T18:52:06.957Z,11.53
2019-04-16T18:54:34.804Z,10.43
2019-04-16T18:57:02.846Z,10.20
2019-04-16T18:59:30.777Z,10.00
2019-04-16T19:02:02.336Z,10.83
2019-04-16T19:04:30.579Z,10.17
2019-04-16T19:06:58.617Z,10.37
2019-04-16T19:09:26.422Z,13.17
2019-04-16T19:11:54.529Z,11.80
2019-04-16T19:14:22.485Z,11.30
2019-04-16T19:16:50.808Z,12.90
2019-04-16T19:19:21.867Z,11.60
2019-04-16T19:21:51.324Z,10.47
2019-04-16T19:24:18.316Z,12.10
2019-04-16T19:26:46.011Z,11.90
2019-04-16T19:29:14.891Z,13.20
2019-04-16T19:31:42.664Z,11.13
2019-04-16T19:34:10.722Z,12.20
2019-04-16T19:36:39.057Z,13.87
2019-04-16T19:39:10.160Z,14.80
2019-04-16T19:41:36.996Z,13.83
2019-04-16T19:44:07.188Z,15.37
2019-04-16T19:46:34.254Z,12.93
2019-04-16T19:49:04.710Z,12.53
2019-04-16T19:51:32.262Z,11.90
2019-04-16T19:53:59.821Z,13.57
2019-04-16T19:56:27.451Z,11.77
2019-04-16T19:58:55.250Z,11.80
2019-04-16T20:01:24.010Z,11.33
2019-04-16T20:03:53.368Z,13.00
2019-04-16T20:06:25.352Z,10.70
2019-04-16T20:08:51.916Z,10.13
2019-04-16T20:11:21.331Z,9.00
2019-04-16T20:13:49.967Z,10.13
2019-04-16T20:16:18.767Z,10.87
2019-04-16T20:18:51.279Z,10.27
2019-04-16T20:21:18.084Z,7.90
2019-04-16T20:23:46.381Z,9.20
2019-04-16T20:26:15.198Z,9.83
2019-04-16T20:28:45.343Z,9.83
2019-04-16T20:31:14.214Z,9.37
2019-04-16T20:33:42.566Z,10.40
2019-04-16T20:36:11.033Z,9.20
2019-04-16T20:38:39.489Z,10.57
2019-04-16T20:41:07.414Z,10.07
2019-04-16T20:43:35.343Z,10.50
2019-04-16T20:46:03.435Z,10.20
2019-04-16T20:48:31.103Z,12.77
2019-04-16T20:50:59.829Z,9.93
2019-04-16T20:53:28.189Z,10.60
2019-04-16T20:55:55.784Z,11.60
2019-04-16T20:58:23.450Z,11.47
2019-04-16T21:00:52.480Z,10.63
2019-04-16T21:03:22.451Z,11.20
2019-04-16T21:05:57.767Z,15.60
2019-04-16T21:08:24.245Z,12.00
2019-04-16T21:10:47.944Z,9.87
2019-04-16T21:13:16.241Z,11.30
2019-04-16T21:15:44.247Z,10.40
2019-04-16T21:18:12.245Z,9.63
2019-04-16T21:20:39.767Z,10.33
2019-04-16T21:23:07.258Z,12.37
2019-04-16T21:25:34.649Z,10.23
2019-04-16T21:28:15.863Z,10.90
2019-04-16T21:30:44.291Z,9.87
2019-04-16T21:33:39.950Z,11.08
2019-04-16T21:36:08.087Z,11.17
2019-04-16T21:38:47.062Z,11.12
2019-04-16T21:41:14.475Z,12.90
2019-04-16T21:43:42.185Z,11.23
2019-04-16T21:46:10.039Z,9.93
2019-04-16T21:48:37.913Z,12.05
2019-04-16T21:51:05.796Z,12.03
2019-04-16T21:53:33.228Z,10.48
2019-04-16T21:56:06.441Z,15.58
2019-04-16T21:58:30.256Z,11.90
2019-04-16T22:01:05.102Z,11.65
2019-04-16T22:03:33.190Z,12.40
2019-04-16T22:06:00.622Z,11.48
2019-04-16T22:08:29.752Z,12.50
2019-04-16T22:10:57.694Z,10.32
2019-04-16T22:13:25.140Z,10.88
2019-04-16T22:15:53.740Z,11.38
2019-04-16T22:18:21.764Z,11.93
2019-04-16T22:20:49.082Z,10.43
2019-04-16T22:23:19.357Z,12.35
2019-04-16T22:25:45.789Z,10.68
2019-04-16T22:28:13.171Z,13.32
2019-04-16T22:30:40.562Z,13.58
2019-04-16T22:33:07.977Z,13.50
2019-04-16T22:35:35.348Z,10.72
2019-04-16T22:38:02.770Z,10.72
2019-04-16T22:40:58.554Z,11.20
2019-04-16T22:43:48.574Z,9.80
2019-04-16T22:46:25.642Z,10.00
2019-04-16T22:48:59.568Z,11.80
2019-04-16T22:51:26.932Z,10.15
2019-04-16T22:53:54.381Z,9.28
2019-04-16T22:56:28.170Z,11.65
2019-04-16T22:58:53.994Z,10.23
2019-04-16T23:01:22.695Z,10.70
2019-04-16T23:03:53.355Z,10.25
2019-04-16T23:06:19.372Z,10.48
2019-04-16T23:08:46.735Z,12.15
2019-04-16T23:11:14.042Z,10.28
2019-04-16T23:13:41.415Z,10.78
2019-04-16T23:16:08.830Z,10.55
2019-04-16T23:18:36.177Z,9.43
2019-04-16T23:21:08.621Z,9.45
2019-04-16T23:23:32.661Z,11.15
2019-04-16T23:26:00.922Z,10.85
2019-04-16T23:28:28.546Z,10.78
2019-04-16T23:30:55.978Z,9.28
2019-04-16T23:33:23.475Z,9.55
2019-04-16T23:35:51.239Z,10.88
2019-04-16T23:38:18.622Z,11.25
2019-04-16T23:40:46.078Z,10.68
2019-04-16T23:43:33.063Z,10.08
2019-04-16T23:46:18.953Z,10.60
2019-04-16T23:48:53.160Z,9.95
2019-04-16T23:51:29.648Z,8.45
2019-04-16T23:54:07.981Z,10.28
2019-04-16T23:56:55.625Z,9.90
2019-04-16T23:59:51.580Z,10.30
